Pagrindinis puslapis
METAR-TAF:

METAR-TAF

Oro uostai :

Tarptautinis Vienos oro uostas

Viena, Austrija

platuma: 48-07N, ilguma: 016-34E, Aukštis: 183 m

Dabartinis oras

Ataskaita buvo paskelbta 24 minutes, ne 22:20 UTC
Vėjas 5 kt iš Pietų
Temperatūra 6°C
Drėgmė 81%
Slėgis 1027 hPa
Matomumas 10 km arba daugiau
nėra debesų žemiau 1500 m ir nėra kamuolinių lietaus debesų

METAR: LOWW 202220Z 17005KT CAVOK 06/03 Q1027 NOSIG

Laikas: 00:44 (22:44 UTC)

Prognozė

Ataskaita buvo paskelbta 2 valandos ir 29 minutes, ne 20:15 UTC
Prognozė galioja nuo 20 metu 21 UTC su 22 metu 03 UTC
Vėjas 4 kt iš Pietvakarių
Matomumas 10 km arba daugiau
nėra debesų žemiau 1500 m ir nėra kamuolinių lietaus debesų
Tapsmas
nuo 21 metu 06 UTC su 21 metu 08 UTC
Vėjas 10 kt iš Pietryčių
Laikinai
nuo 21 metu 10 UTC su 21 metu 16 UTC
Vėjas 17 kt iš Pietų/Pietryčių

TAF: LOWW 202015Z 2021/2203 22004KT CAVOK TX19/2114Z TN04/2104Z BECMG 2106/2108 14010KT TEMPO 2110/2116 15017KT

Orai ataskaitas ir orų prognozės (METAR, TAF).

turimą stotys yra geltonos ir raudonos taškus žemėlapyje.

Perkelti pele per norėdami pamatyti stoties vardą.

Tada spustelėkite, norėdami matyti oro stebėjimo ir prognozės.

Norėdami pakeisti žemėlapį: spustelėkite ant žalios mygtukų su juodo kryžiaus žemyn,; žalią mygtuką su brūkšneliu, jei norite nutolinti; arba žalių rodyklių gretimoms žemėlapius.


METAR-TAF: